createdAt,value
2018-06-11T00:01:14.176Z,18.04
2018-06-11T00:03:42.603Z,18.03
2018-06-11T00:06:10.982Z,18.01
2018-06-11T00:08:39.393Z,18.00
2018-06-11T00:11:07.771Z,17.97
2018-06-11T00:13:36.158Z,17.95
2018-06-11T00:16:04.563Z,17.95
2018-06-11T00:18:32.947Z,17.93
2018-06-11T00:21:01.338Z,17.92
2018-06-11T00:23:29.813Z,17.89
2018-06-11T00:25:58.210Z,17.87
2018-06-11T00:28:26.587Z,17.85
2018-06-11T00:30:54.983Z,17.82
2018-06-11T00:33:23.362Z,17.78
2018-06-11T00:35:51.758Z,17.74
2018-06-11T00:38:20.135Z,17.71
2018-06-11T00:40:48.540Z,17.68
2018-06-11T00:43:16.916Z,17.65
2018-06-11T00:45:45.315Z,17.63
2018-06-11T00:48:13.694Z,17.62
2018-06-11T00:50:42.094Z,17.61
2018-06-11T00:53:10.477Z,17.59
2018-06-11T00:55:50.139Z,17.57
2018-06-11T00:58:18.514Z,17.55
2018-06-11T01:00:46.910Z,17.55
2018-06-11T01:03:15.319Z,17.55
2018-06-11T01:05:43.714Z,17.57
2018-06-11T01:08:12.086Z,17.58
2018-06-11T01:10:40.491Z,17.60
2018-06-11T01:13:08.870Z,17.62
2018-06-11T01:15:37.262Z,17.64
2018-06-11T01:18:05.645Z,17.66
2018-06-11T01:20:34.048Z,17.67
2018-06-11T01:23:02.431Z,17.68
2018-06-11T01:25:30.834Z,17.71
2018-06-11T01:27:59.201Z,17.76
2018-06-11T01:30:27.594Z,17.80
2018-06-11T01:32:55.961Z,17.86
2018-06-11T01:35:24.378Z,17.90
2018-06-11T01:37:52.752Z,17.92
2018-06-11T01:40:21.126Z,17.94
2018-06-11T01:42:49.530Z,17.97
2018-06-11T01:45:17.902Z,17.98
2018-06-11T01:47:46.303Z,17.99
2018-06-11T01:50:14.686Z,18.02
2018-06-11T01:52:43.090Z,18.05
2018-06-11T01:55:11.466Z,18.07
2018-06-11T01:57:39.870Z,18.09
2018-06-11T02:00:08.248Z,18.12
2018-06-11T02:02:36.675Z,18.14
2018-06-11T02:05:05.081Z,18.18
2018-06-11T02:07:33.490Z,18.19
2018-06-11T02:10:01.867Z,18.20
2018-06-11T02:12:30.262Z,18.21
2018-06-11T02:14:58.639Z,18.18
2018-06-11T02:17:27.039Z,18.15
2018-06-11T02:19:55.410Z,18.11
2018-06-11T02:22:23.858Z,18.07
2018-06-11T02:24:52.235Z,18.03
2018-06-11T02:27:20.638Z,17.99
2018-06-11T02:29:49.024Z,17.97
2018-06-11T02:32:17.430Z,17.95
2018-06-11T02:34:45.806Z,17.97
2018-06-11T02:37:14.202Z,17.97
2018-06-11T02:39:42.574Z,17.99
2018-06-11T02:42:10.987Z,18.01
2018-06-11T02:44:39.367Z,18.01
2018-06-11T02:47:07.767Z,18.03
2018-06-11T02:49:36.146Z,18.04
2018-06-11T02:52:04.542Z,18.06
2018-06-11T02:54:33.024Z,18.10
2018-06-11T02:57:01.402Z,18.11
2018-06-11T02:59:29.807Z,18.16
2018-06-11T03:01:58.202Z,18.18
2018-06-11T03:04:26.630Z,18.19
2018-06-11T03:06:55.010Z,18.21
2018-06-11T03:09:23.411Z,18.23
2018-06-11T03:11:51.790Z,18.25
2018-06-11T03:14:20.191Z,18.26
2018-06-11T03:16:48.571Z,18.27
2018-06-11T03:19:16.970Z,18.28
2018-06-11T03:21:45.346Z,18.31
2018-06-11T03:24:13.750Z,18.32
2018-06-11T03:26:42.126Z,18.32
2018-06-11T03:29:10.522Z,18.33
2018-06-11T03:31:38.898Z,18.33
2018-06-11T03:34:07.298Z,18.34
2018-06-11T03:36:35.678Z,18.35
2018-06-11T03:39:06.070Z,18.35
2018-06-11T03:41:34.450Z,18.35
2018-06-11T03:44:02.850Z,18.34
2018-06-11T03:46:31.226Z,18.33
2018-06-11T03:48:59.627Z,18.34
2018-06-11T03:51:28.000Z,18.34
2018-06-11T03:53:56.406Z,18.37
2018-06-11T03:56:24.786Z,18.38
2018-06-11T03:58:53.188Z,18.39
2018-06-11T04:01:21.566Z,18.40
2018-06-11T04:03:49.982Z,18.43
2018-06-11T04:06:18.354Z,18.45
2018-06-11T04:08:46.766Z,18.47
2018-06-11T04:11:15.198Z,18.47
2018-06-11T04:13:43.575Z,18.48
2018-06-11T04:16:11.946Z,18.48
2018-06-11T04:18:40.327Z,18.47
2018-06-11T04:21:08.727Z,18.46
2018-06-11T04:23:37.103Z,18.47
2018-06-11T04:26:05.778Z,18.48
2018-06-11T04:28:34.151Z,18.49
2018-06-11T04:31:02.631Z,18.52
2018-06-11T04:33:31.058Z,18.50
2018-06-11T04:35:59.450Z,18.50
2018-06-11T04:38:27.854Z,18.52
2018-06-11T04:40:56.253Z,18.54
2018-06-11T04:43:24.622Z,18.55
2018-06-11T04:45:53.014Z,18.55
2018-06-11T04:48:21.386Z,18.54
2018-06-11T04:50:49.781Z,18.53
2018-06-11T04:53:18.154Z,18.52
2018-06-11T04:55:46.550Z,18.52
2018-06-11T04:58:14.923Z,18.54
2018-06-11T05:00:43.318Z,18.57
2018-06-11T05:03:11.716Z,18.62
2018-06-11T05:05:40.114Z,18.67
2018-06-11T05:08:08.541Z,18.74
2018-06-11T05:10:36.906Z,18.82
2018-06-11T05:13:05.273Z,18.88
2018-06-11T05:15:33.682Z,18.92
2018-06-11T05:18:02.086Z,18.97
2018-06-11T05:20:30.482Z,18.99
2018-06-11T05:22:58.888Z,19.01
2018-06-11T05:25:27.283Z,19.06
2018-06-11T05:27:55.661Z,19.10
2018-06-11T05:30:24.055Z,19.15
2018-06-11T05:32:52.427Z,19.15
2018-06-11T05:35:20.799Z,19.18
2018-06-11T05:37:49.195Z,19.21
2018-06-11T05:40:17.578Z,19.25
2018-06-11T05:42:45.976Z,19.29
2018-06-11T05:45:14.347Z,19.32
2018-06-11T05:47:42.742Z,19.34
2018-06-11T05:50:11.110Z,19.35
2018-06-11T05:52:39.506Z,19.32
2018-06-11T05:55:07.881Z,19.30
2018-06-11T05:57:36.339Z,19.33
2018-06-11T06:00:04.895Z,19.34
2018-06-11T06:02:33.314Z,19.36
2018-06-11T06:05:01.696Z,19.42
2018-06-11T06:07:30.094Z,19.41
2018-06-11T06:09:58.470Z,19.44
2018-06-11T06:12:26.866Z,19.45
2018-06-11T06:14:55.239Z,19.50
2018-06-11T06:17:23.634Z,19.56
2018-06-11T06:19:52.006Z,19.61
2018-06-11T06:22:20.405Z,19.65
2018-06-11T06:24:48.786Z,19.77
2018-06-11T06:27:17.215Z,19.80
2018-06-11T06:29:45.594Z,19.87
2018-06-11T06:32:14.002Z,19.97
2018-06-11T06:34:42.437Z,20.10
2018-06-11T06:37:10.815Z,20.20
2018-06-11T06:39:39.226Z,20.29
2018-06-11T06:42:07.632Z,20.34
2018-06-11T06:44:36.016Z,20.38
2018-06-11T06:47:04.416Z,20.35
2018-06-11T06:49:32.790Z,20.34
2018-06-11T06:52:01.199Z,20.41
2018-06-11T06:54:29.575Z,20.55
2018-06-11T06:56:57.943Z,20.62
2018-06-11T06:59:26.378Z,20.71
2018-06-11T07:01:54.746Z,20.83
2018-06-11T07:04:23.156Z,20.91
2018-06-11T07:06:51.522Z,20.97
2018-06-11T07:09:19.919Z,21.02
2018-06-11T07:11:48.290Z,21.06
2018-06-11T07:14:16.676Z,21.11
2018-06-11T07:16:45.051Z,21.09
2018-06-11T07:19:13.447Z,21.10
2018-06-11T07:21:41.825Z,21.10
2018-06-11T07:24:10.214Z,21.27
2018-06-11T07:26:38.584Z,21.36
2018-06-11T07:29:06.974Z,21.45
2018-06-11T07:31:35.338Z,21.51
2018-06-11T07:34:03.735Z,21.44
2018-06-11T07:36:32.119Z,21.32
2018-06-11T07:39:00.621Z,21.13
2018-06-11T07:41:28.992Z,20.91
2018-06-11T07:43:57.415Z,20.82
2018-06-11T07:46:25.786Z,20.81
2018-06-11T07:48:54.150Z,20.93
2018-06-11T07:51:22.564Z,20.94
2018-06-11T07:53:50.938Z,20.96
2018-06-11T07:56:19.322Z,21.00
2018-06-11T07:58:47.690Z,21.04
2018-06-11T08:01:16.087Z,21.01
2018-06-11T08:03:44.495Z,21.02
2018-06-11T08:06:12.895Z,21.02
2018-06-11T08:08:41.268Z,21.08
2018-06-11T08:11:09.661Z,21.15
2018-06-11T08:13:38.098Z,21.27
2018-06-11T08:16:06.455Z,21.29
2018-06-11T08:18:34.819Z,21.35
2018-06-11T08:21:03.206Z,21.39
2018-06-11T08:23:31.580Z,21.38
2018-06-11T08:25:59.963Z,21.39
2018-06-11T08:28:28.331Z,21.43
2018-06-11T08:30:56.743Z,21.47
2018-06-11T08:33:25.112Z,21.52
2018-06-11T08:35:53.507Z,21.54
2018-06-11T08:38:21.883Z,21.57
2018-06-11T08:40:50.294Z,21.62
2018-06-11T08:43:18.720Z,21.76
2018-06-11T08:45:47.073Z,21.84
2018-06-11T08:48:15.454Z,21.91
2018-06-11T08:50:43.821Z,21.97
2018-06-11T08:53:12.205Z,22.06
2018-06-11T08:55:40.570Z,22.14
2018-06-11T08:58:09.165Z,22.32
2018-06-11T09:00:37.534Z,22.43
2018-06-11T09:03:05.951Z,22.43
2018-06-11T09:05:34.318Z,22.41
2018-06-11T09:08:02.714Z,22.33
2018-06-11T09:10:31.083Z,22.44
2018-06-11T09:12:59.483Z,22.49
2018-06-11T09:15:27.846Z,22.49
2018-06-11T09:17:56.271Z,22.48
2018-06-11T09:20:24.641Z,22.40
2018-06-11T09:22:53.035Z,22.35
2018-06-11T09:25:21.404Z,22.36
2018-06-11T09:27:49.787Z,22.36
2018-06-11T09:30:18.158Z,22.37
2018-06-11T09:32:46.547Z,22.38
2018-06-11T09:35:14.954Z,22.39
2018-06-11T09:37:43.326Z,22.41
2018-06-11T09:40:11.719Z,22.48
2018-06-11T09:42:40.099Z,22.60
2018-06-11T09:45:08.494Z,22.78
2018-06-11T09:47:36.863Z,22.90
2018-06-11T09:50:05.290Z,22.96
2018-06-11T09:52:33.655Z,23.00
2018-06-11T09:55:02.046Z,22.96
2018-06-11T09:57:30.405Z,22.97
2018-06-11T09:59:58.849Z,23.15
2018-06-11T10:02:27.243Z,23.23
2018-06-11T10:04:55.626Z,23.27
2018-06-11T10:07:23.998Z,23.29
2018-06-11T10:09:52.389Z,23.26
2018-06-11T10:12:20.833Z,23.18
2018-06-11T10:14:49.172Z,23.11
2018-06-11T10:17:17.544Z,23.13
2018-06-11T10:19:45.936Z,23.24
2018-06-11T10:22:14.363Z,23.33
2018-06-11T10:24:42.754Z,23.45
2018-06-11T10:27:11.197Z,23.53
2018-06-11T10:29:39.594Z,23.54
2018-06-11T10:32:07.982Z,23.56
2018-06-11T10:34:36.369Z,23.60
2018-06-11T10:37:04.746Z,23.61
2018-06-11T10:39:33.143Z,23.63
2018-06-11T10:42:01.515Z,23.57
2018-06-11T10:44:29.912Z,23.50
2018-06-11T10:46:58.303Z,23.41
2018-06-11T10:49:26.695Z,23.31
2018-06-11T10:51:55.071Z,23.32
2018-06-11T10:54:23.482Z,23.25
2018-06-11T10:56:51.849Z,23.23
2018-06-11T10:59:20.221Z,23.18
2018-06-11T11:01:48.638Z,23.10
2018-06-11T11:04:17.025Z,23.08
2018-06-11T11:06:45.422Z,23.02
2018-06-11T11:09:13.794Z,23.00
2018-06-11T11:11:42.190Z,23.01
2018-06-11T11:14:10.571Z,23.07
2018-06-11T11:16:38.958Z,23.20
2018-06-11T11:19:07.339Z,23.20
2018-06-11T11:21:35.738Z,23.25
2018-06-11T11:24:04.154Z,23.24
2018-06-11T11:26:32.532Z,23.25
2018-06-11T11:29:00.902Z,23.24
2018-06-11T11:31:29.299Z,23.20
2018-06-11T11:33:57.695Z,23.17
2018-06-11T11:36:26.095Z,23.11
2018-06-11T11:38:54.474Z,23.18
2018-06-11T11:41:23.508Z,23.30
2018-06-11T11:43:51.882Z,23.46
2018-06-11T11:46:20.278Z,23.62
2018-06-11T11:48:48.634Z,23.70
2018-06-11T11:51:17.026Z,23.80
2018-06-11T11:53:45.394Z,23.91
2018-06-11T11:56:13.805Z,24.03
2018-06-11T11:58:42.173Z,24.17
2018-06-11T12:01:10.570Z,24.23
2018-06-11T12:03:38.953Z,24.22
2018-06-11T12:06:07.435Z,24.19
2018-06-11T12:08:35.807Z,24.08
2018-06-11T12:11:04.213Z,24.07
2018-06-11T12:13:32.604Z,24.07
2018-06-11T12:16:00.974Z,24.05
2018-06-11T12:18:29.412Z,24.12
2018-06-11T12:20:57.782Z,24.21
2018-06-11T12:23:26.273Z,24.29
2018-06-11T12:25:54.638Z,24.37
2018-06-11T12:28:23.031Z,24.53
2018-06-11T12:30:51.404Z,24.62
2018-06-11T12:33:19.790Z,24.61
2018-06-11T12:35:48.155Z,24.58
2018-06-11T12:38:16.543Z,24.60
2018-06-11T12:40:44.908Z,24.58
2018-06-11T12:43:13.290Z,24.58
2018-06-11T12:45:41.658Z,24.61
2018-06-11T12:48:10.038Z,24.69
2018-06-11T12:50:38.422Z,24.79
2018-06-11T12:53:08.519Z,24.90
2018-06-11T12:55:36.890Z,24.98
2018-06-11T12:58:05.303Z,25.00
2018-06-11T13:00:33.695Z,24.95
2018-06-11T13:03:02.183Z,24.89
2018-06-11T13:05:30.551Z,24.87
2018-06-11T13:07:58.939Z,24.88
2018-06-11T13:10:27.307Z,24.91
2018-06-11T13:12:55.692Z,24.90
2018-06-11T13:15:24.063Z,24.79
2018-06-11T13:17:52.451Z,24.68
2018-06-11T13:20:20.822Z,24.61
2018-06-11T13:22:49.214Z,24.56
2018-06-11T13:25:17.578Z,24.51
2018-06-11T13:27:45.990Z,24.50
2018-06-11T13:30:14.351Z,24.50
2018-06-11T13:32:42.710Z,24.51
2018-06-11T13:35:11.129Z,24.47
2018-06-11T13:37:39.494Z,24.47
2018-06-11T13:40:07.888Z,24.35
2018-06-11T13:42:36.254Z,24.34
2018-06-11T13:45:04.714Z,24.36
2018-06-11T13:47:33.087Z,24.43
2018-06-11T13:50:01.478Z,24.46
2018-06-11T13:52:29.866Z,24.48
2018-06-11T13:54:58.259Z,24.48
2018-06-11T13:57:26.630Z,24.41
2018-06-11T13:59:55.019Z,24.44
2018-06-11T14:02:23.402Z,24.47
2018-06-11T14:04:51.782Z,24.53
2018-06-11T14:07:20.158Z,24.57
2018-06-11T14:09:48.558Z,24.62
2018-06-11T14:12:16.943Z,24.65
2018-06-11T14:14:45.334Z,24.65
2018-06-11T14:17:13.698Z,24.61
2018-06-11T14:19:42.095Z,24.57
2018-06-11T14:22:10.459Z,24.54
2018-06-11T14:24:38.842Z,24.49
2018-06-11T14:27:07.210Z,24.45
2018-06-11T14:29:35.606Z,24.44
2018-06-11T14:32:04.139Z,24.43
2018-06-11T14:34:32.531Z,24.40
2018-06-11T14:37:01.031Z,24.43
2018-06-11T14:39:29.558Z,24.50
2018-06-11T14:41:57.965Z,24.61
2018-06-11T14:44:26.348Z,24.75
2018-06-11T14:46:54.752Z,24.86
2018-06-11T14:49:23.131Z,24.95
2018-06-11T14:51:51.522Z,25.09
2018-06-11T14:54:19.894Z,25.24
2018-06-11T14:56:48.282Z,25.36
2018-06-11T14:59:16.652Z,25.46
2018-06-11T15:01:45.043Z,25.52
2018-06-11T15:04:13.435Z,25.55
2018-06-11T15:06:41.822Z,25.63
2018-06-11T15:09:10.191Z,25.73
2018-06-11T15:11:38.584Z,25.77
2018-06-11T15:14:06.975Z,25.84
2018-06-11T15:16:35.358Z,25.90
2018-06-11T15:19:03.856Z,25.92
2018-06-11T15:21:33.038Z,25.93
2018-06-11T15:24:01.402Z,25.93
2018-06-11T15:26:29.791Z,25.97
2018-06-11T15:28:58.159Z,26.03
2018-06-11T15:31:26.555Z,26.04
2018-06-11T15:33:54.918Z,26.03
2018-06-11T15:36:23.310Z,26.03
2018-06-11T15:38:51.674Z,25.99
2018-06-11T15:41:20.059Z,25.97
2018-06-11T15:43:48.423Z,26.00
2018-06-11T15:46:16.823Z,26.04
2018-06-11T15:48:45.183Z,26.10
2018-06-11T15:51:13.578Z,26.13
2018-06-11T15:53:41.951Z,26.18
2018-06-11T15:56:10.352Z,26.16
2018-06-11T15:58:38.722Z,26.15
2018-06-11T16:01:07.295Z,26.16
2018-06-11T16:03:35.690Z,26.02
2018-06-11T16:06:04.066Z,26.01
2018-06-11T16:08:32.466Z,26.02
2018-06-11T16:11:00.838Z,25.97
2018-06-11T16:13:29.236Z,25.92
2018-06-11T16:15:57.603Z,25.91
2018-06-11T16:18:26.011Z,25.80
2018-06-11T16:20:54.385Z,25.68
2018-06-11T16:23:22.779Z,25.54
2018-06-11T16:25:51.238Z,25.44
2018-06-11T16:28:19.641Z,25.63
2018-06-11T16:30:48.019Z,25.85
2018-06-11T16:33:16.428Z,26.17
2018-06-11T16:35:44.799Z,26.49
2018-06-11T16:38:13.228Z,26.80
2018-06-11T16:40:41.620Z,27.11
2018-06-11T16:43:10.178Z,27.48
2018-06-11T16:45:38.927Z,27.84
2018-06-11T16:48:07.314Z,28.12
2018-06-11T16:50:35.692Z,28.35
2018-06-11T16:53:04.088Z,28.56
2018-06-11T16:55:32.467Z,28.72
2018-06-11T16:58:00.859Z,28.91
2018-06-11T17:00:29.237Z,29.05
2018-06-11T17:02:57.654Z,29.11
2018-06-11T17:05:26.101Z,29.17
2018-06-11T17:07:54.519Z,29.21
2018-06-11T17:10:22.939Z,29.24
2018-06-11T17:12:51.326Z,29.27
2018-06-11T17:15:19.696Z,29.34
2018-06-11T17:17:48.115Z,29.47
2018-06-11T17:20:16.556Z,29.49
2018-06-11T17:22:44.942Z,29.44
2018-06-11T17:25:13.319Z,29.34
2018-06-11T17:27:41.702Z,29.28
2018-06-11T17:30:10.107Z,29.21
2018-06-11T17:32:38.519Z,29.14
2018-06-11T17:35:06.914Z,28.97
2018-06-11T17:37:35.403Z,28.94
2018-06-11T17:40:03.815Z,28.93
2018-06-11T17:42:32.186Z,28.90
2018-06-11T17:45:00.599Z,28.84
2018-06-11T17:47:28.992Z,28.73
2018-06-11T17:49:57.648Z,28.54
2018-06-11T17:52:26.019Z,28.36
2018-06-11T17:54:54.406Z,28.14
2018-06-11T17:57:22.872Z,27.75
2018-06-11T17:59:51.315Z,27.39
2018-06-11T18:02:19.727Z,26.93
2018-06-11T18:04:48.126Z,26.44
2018-06-11T18:07:16.497Z,25.97
2018-06-11T18:09:44.911Z,25.55
2018-06-11T18:12:13.304Z,25.17
2018-06-11T18:14:41.712Z,24.82
2018-06-11T18:17:10.098Z,24.53
2018-06-11T18:19:38.503Z,24.31
2018-06-11T18:22:06.888Z,24.08
2018-06-11T18:24:35.282Z,23.87
2018-06-11T18:27:03.658Z,23.67
2018-06-11T18:29:32.048Z,23.55
2018-06-11T18:32:00.418Z,23.42
2018-06-11T18:34:28.815Z,23.32
2018-06-11T18:36:57.187Z,23.22
2018-06-11T18:39:25.575Z,23.10
2018-06-11T18:41:54.003Z,22.95
2018-06-11T18:44:22.610Z,22.85
2018-06-11T18:46:50.998Z,22.71
2018-06-11T18:49:19.367Z,22.58
2018-06-11T18:51:47.767Z,22.48
2018-06-11T18:54:16.142Z,22.32
2018-06-11T18:56:44.530Z,22.20
2018-06-11T18:59:12.902Z,22.11
2018-06-11T19:01:41.289Z,22.03
2018-06-11T19:04:09.714Z,21.96
2018-06-11T19:06:38.114Z,21.88
2018-06-11T19:09:08.166Z,21.80
2018-06-11T19:11:36.562Z,21.68
2018-06-11T19:14:04.944Z,21.53
2018-06-11T19:16:33.334Z,21.34
2018-06-11T19:19:02.152Z,21.22
2018-06-11T19:21:30.538Z,21.10
2018-06-11T19:23:58.914Z,20.99
2018-06-11T19:26:27.319Z,20.90
2018-06-11T19:28:55.695Z,20.81
2018-06-11T19:31:24.098Z,20.73
2018-06-11T19:33:52.476Z,20.61
2018-06-11T19:36:20.876Z,20.50
2018-06-11T19:38:49.241Z,20.38
2018-06-11T19:41:17.642Z,20.26
2018-06-11T19:43:46.010Z,20.13
2018-06-11T19:46:14.411Z,20.05
2018-06-11T19:48:42.782Z,19.97
2018-06-11T19:51:11.209Z,19.89
2018-06-11T19:53:39.578Z,19.82
2018-06-11T19:56:07.974Z,19.77
2018-06-11T19:58:36.353Z,19.70
2018-06-11T20:01:04.854Z,19.65
2018-06-11T20:03:33.255Z,19.58
2018-06-11T20:06:01.715Z,19.51
2018-06-11T20:08:30.090Z,19.44
2018-06-11T20:10:58.467Z,19.39
2018-06-11T20:13:26.874Z,19.33
2018-06-11T20:15:55.242Z,19.29
2018-06-11T20:18:23.632Z,19.20
2018-06-11T20:20:52.014Z,19.13
2018-06-11T20:23:20.417Z,19.05
2018-06-11T20:25:48.788Z,18.96
2018-06-11T20:28:17.207Z,18.90
2018-06-11T20:30:45.580Z,18.83
2018-06-11T20:33:13.978Z,18.78
2018-06-11T20:35:42.342Z,18.72
2018-06-11T20:38:10.738Z,18.67
2018-06-11T20:40:39.111Z,18.62
2018-06-11T20:43:07.502Z,18.55
2018-06-11T20:45:35.875Z,18.49
2018-06-11T20:48:04.426Z,18.43
2018-06-11T20:50:32.786Z,18.37
2018-06-11T20:53:01.190Z,18.30
2018-06-11T20:55:29.562Z,18.26
2018-06-11T20:57:57.967Z,18.21
2018-06-11T21:00:26.347Z,18.13
2018-06-11T21:02:54.761Z,18.06
2018-06-11T21:05:23.137Z,18.00
2018-06-11T21:07:51.539Z,17.94
2018-06-11T21:10:19.918Z,17.86
2018-06-11T21:12:48.319Z,17.78
2018-06-11T21:15:16.691Z,17.70
2018-06-11T21:17:45.094Z,17.65
2018-06-11T21:20:13.467Z,17.61
2018-06-11T21:22:41.864Z,17.56
2018-06-11T21:25:10.253Z,17.51
2018-06-11T21:27:38.675Z,17.47
2018-06-11T21:30:07.042Z,17.42
2018-06-11T21:32:35.410Z,17.37
2018-06-11T21:35:03.811Z,17.32
2018-06-11T21:37:32.189Z,17.25
2018-06-11T21:40:00.610Z,17.20
2018-06-11T21:42:29.022Z,17.17
2018-06-11T21:44:57.416Z,17.13
2018-06-11T21:47:25.790Z,17.10
2018-06-11T21:49:54.193Z,17.06
2018-06-11T21:52:22.563Z,17.03
2018-06-11T21:54:50.966Z,16.99
2018-06-11T21:57:19.331Z,16.94
2018-06-11T21:59:47.723Z,16.91
2018-06-11T22:02:16.099Z,16.87
2018-06-11T22:04:44.519Z,16.83
2018-06-11T22:07:12.897Z,16.77
2018-06-11T22:09:41.310Z,16.73
2018-06-11T22:12:09.678Z,16.69
2018-06-11T22:14:38.070Z,16.66
2018-06-11T22:17:06.439Z,16.60
2018-06-11T22:19:34.834Z,16.57
2018-06-11T22:22:03.209Z,16.54
2018-06-11T22:24:31.602Z,16.49
2018-06-11T22:26:59.974Z,16.42
2018-06-11T22:29:28.365Z,16.38
2018-06-11T22:31:56.727Z,16.33
2018-06-11T22:34:25.119Z,16.29
2018-06-11T22:36:53.493Z,16.26
2018-06-11T22:39:21.885Z,16.22
2018-06-11T22:41:50.253Z,16.16
2018-06-11T22:44:18.646Z,16.11
2018-06-11T22:46:47.019Z,16.05
2018-06-11T22:49:15.423Z,16.02
2018-06-11T22:51:43.799Z,15.97
2018-06-11T22:54:12.174Z,15.92
2018-06-11T22:56:40.571Z,15.85
2018-06-11T22:59:08.947Z,15.78
2018-06-11T23:01:37.343Z,15.72
2018-06-11T23:04:05.775Z,15.66
2018-06-11T23:06:34.162Z,15.63
2018-06-11T23:09:02.544Z,15.59
2018-06-11T23:11:30.938Z,15.57
2018-06-11T23:13:59.318Z,15.53
2018-06-11T23:16:27.715Z,15.48
2018-06-11T23:18:56.090Z,15.43
2018-06-11T23:21:24.497Z,15.38
2018-06-11T23:23:52.881Z,15.33
2018-06-11T23:26:21.279Z,15.26
2018-06-11T23:28:49.663Z,15.22
2018-06-11T23:31:18.068Z,15.16
2018-06-11T23:33:46.443Z,15.10
2018-06-11T23:36:14.842Z,15.05
2018-06-11T23:38:43.219Z,14.98
2018-06-11T23:41:11.642Z,14.94
2018-06-11T23:43:40.011Z,14.90
2018-06-11T23:46:08.415Z,14.86
2018-06-11T23:48:36.790Z,14.84
2018-06-11T23:51:05.192Z,14.85
2018-06-11T23:53:33.573Z,14.84
2018-06-11T23:56:01.966Z,14.81
2018-06-11T23:58:30.339Z,14.80
